sensor_id;sensor_type;location;lat;lon;timestamp;temperature;humidity
34837;DHT22;21053;50.848;4.652;2024-03-08T00:00:23;6.10;99.90
34837;DHT22;21053;50.848;4.652;2024-03-08T00:02:51;6.10;99.90
34837;DHT22;21053;50.848;4.652;2024-03-08T00:05:23;6.10;99.90
34837;DHT22;21053;50.848;4.652;2024-03-08T00:07:52;6.00;99.90
34837;DHT22;21053;50.848;4.652;2024-03-08T00:10:20;6.00;99.90
34837;DHT22;21053;50.848;4.652;2024-03-08T00:12:49;6.00;99.90
34837;DHT22;21053;50.848;4.652;2024-03-08T00:15:17;5.90;99.90
34837;DHT22;21053;50.848;4.652;2024-03-08T00:17:46;5.90;99.90
34837;DHT22;21053;50.848;4.652;2024-03-08T00:20:16;5.90;99.90
34837;DHT22;21053;50.848;4.652;2024-03-08T00:22:49;5.90;99.90
34837;DHT22;21053;50.848;4.652;2024-03-08T00:25:18;5.90;99.90
34837;DHT22;21053;50.848;4.652;2024-03-08T00:27:46;5.90;99.90
34837;DHT22;21053;50.848;4.652;2024-03-08T00:30:21;5.90;99.90
34837;DHT22;21053;50.848;4.652;2024-03-08T00:32:51;5.90;99.90
34837;DHT22;21053;50.848;4.652;2024-03-08T00:35:20;5.90;99.90
34837;DHT22;21053;50.848;4.652;2024-03-08T00:37:48;5.80;99.90
34837;DHT22;21053;50.848;4.652;2024-03-08T00:40:16;5.80;99.90
34837;DHT22;21053;50.848;4.652;2024-03-08T00:42:44;5.80;99.90
34837;DHT22;21053;50.848;4.652;2024-03-08T00:45:11;5.70;99.90
34837;DHT22;21053;50.848;4.652;2024-03-08T00:47:39;5.80;99.90
34837;DHT22;21053;50.848;4.652;2024-03-08T00:50:06;5.70;99.90
34837;DHT22;21053;50.848;4.652;2024-03-08T00:52:31;5.60;99.90
34837;DHT22;21053;50.848;4.652;2024-03-08T00:54:58;5.60;99.90
34837;DHT22;21053;50.848;4.652;2024-03-08T00:57:26;5.70;99.90
34837;DHT22;21053;50.848;4.652;2024-03-08T00:59:53;5.70;99.90
34837;DHT22;21053;50.848;4.652;2024-03-08T01:02:19;5.60;99.90
34837;DHT22;21053;50.848;4.652;2024-03-08T01:04:48;5.50;99.90
34837;DHT22;21053;50.848;4.652;2024-03-08T01:07:14;5.50;99.90
34837;DHT22;21053;50.848;4.652;2024-03-08T01:09:43;5.50;99.90
34837;DHT22;21053;50.848;4.652;2024-03-08T01:12:12;5.60;99.90
34837;DHT22;21053;50.848;4.652;2024-03-08T01:14:40;5.50;99.90
34837;DHT22;21053;50.848;4.652;2024-03-08T01:17:09;5.60;99.90
34837;DHT22;21053;50.848;4.652;2024-03-08T01:19:38;5.60;99.90
34837;DHT22;21053;50.848;4.652;2024-03-08T01:22:10;5.50;99.90
34837;DHT22;21053;50.848;4.652;2024-03-08T01:24:36;5.50;99.90
34837;DHT22;21053;50.848;4.652;2024-03-08T01:27:03;5.50;99.90
34837;DHT22;21053;50.848;4.652;2024-03-08T01:29:32;5.40;99.90
34837;DHT22;21053;50.848;4.652;2024-03-08T01:32:01;5.30;99.90
34837;DHT22;21053;50.848;4.652;2024-03-08T01:34:29;5.30;99.90
34837;DHT22;21053;50.848;4.652;2024-03-08T01:36:58;5.40;99.90
34837;DHT22;21053;50.848;4.652;2024-03-08T01:39:28;5.40;99.90
34837;DHT22;21053;50.848;4.652;2024-03-08T01:41:53;5.30;99.90
34837;DHT22;21053;50.848;4.652;2024-03-08T01:44:22;5.40;99.90
34837;DHT22;21053;50.848;4.652;2024-03-08T01:46:58;5.30;99.90
34837;DHT22;21053;50.848;4.652;2024-03-08T01:49:27;5.20;99.90
34837;DHT22;21053;50.848;4.652;2024-03-08T01:51:56;5.10;99.90
34837;DHT22;21053;50.848;4.652;2024-03-08T01:54:25;5.20;99.90
34837;DHT22;21053;50.848;4.652;2024-03-08T01:56:55;5.20;99.90
34837;DHT22;21053;50.848;4.652;2024-03-08T01:59:23;5.20;99.90
34837;DHT22;21053;50.848;4.652;2024-03-08T02:01:49;5.20;99.90
34837;DHT22;21053;50.848;4.652;2024-03-08T02:04:17;5.20;99.90
34837;DHT22;21053;50.848;4.652;2024-03-08T02:06:44;5.20;99.90
34837;DHT22;21053;50.848;4.652;2024-03-08T02:09:12;5.20;99.90
34837;DHT22;21053;50.848;4.652;2024-03-08T02:11:41;5.00;99.90
34837;DHT22;21053;50.848;4.652;2024-03-08T02:14:10;5.00;99.90
34837;DHT22;21053;50.848;4.652;2024-03-08T02:16:36;5.00;99.90
34837;DHT22;21053;50.848;4.652;2024-03-08T02:19:06;4.90;99.90
34837;DHT22;21053;50.848;4.652;2024-03-08T02:21:38;4.90;99.90
34837;DHT22;21053;50.848;4.652;2024-03-08T02:24:04;4.90;99.90
34837;DHT22;21053;50.848;4.652;2024-03-08T02:26:34;4.80;99.90
34837;DHT22;21053;50.848;4.652;2024-03-08T02:29:00;4.80;99.90
34837;DHT22;21053;50.848;4.652;2024-03-08T02:31:27;4.80;99.90
34837;DHT22;21053;50.848;4.652;2024-03-08T02:33:56;4.80;99.90
34837;DHT22;21053;50.848;4.652;2024-03-08T02:36:25;4.80;99.90
34837;DHT22;21053;50.848;4.652;2024-03-08T02:38:53;4.90;99.90
34837;DHT22;21053;50.848;4.652;2024-03-08T02:41:21;4.90;99.90
34837;DHT22;21053;50.848;4.652;2024-03-08T02:43:47;4.80;99.90
34837;DHT22;21053;50.848;4.652;2024-03-08T02:46:13;4.70;99.90
34837;DHT22;21053;50.848;4.652;2024-03-08T02:48:40;4.70;99.90
34837;DHT22;21053;50.848;4.652;2024-03-08T02:51:06;4.70;99.90
34837;DHT22;21053;50.848;4.652;2024-03-08T02:53:32;4.70;99.90
34837;DHT22;21053;50.848;4.652;2024-03-08T02:56:01;4.70;99.90
34837;DHT22;21053;50.848;4.652;2024-03-08T02:58:29;4.70;99.90
34837;DHT22;21053;50.848;4.652;2024-03-08T03:00:58;4.70;99.90
34837;DHT22;21053;50.848;4.652;2024-03-08T03:03:25;4.60;99.90
34837;DHT22;21053;50.848;4.652;2024-03-08T03:05:55;4.70;99.90
34837;DHT22;21053;50.848;4.652;2024-03-08T03:08:37;4.60;99.90
34837;DHT22;21053;50.848;4.652;2024-03-08T03:11:07;4.60;99.90
34837;DHT22;21053;50.848;4.652;2024-03-08T03:13:33;4.50;99.90
34837;DHT22;21053;50.848;4.652;2024-03-08T03:16:04;4.40;99.90
34837;DHT22;21053;50.848;4.652;2024-03-08T03:18:33;4.40;99.90
34837;DHT22;21053;50.848;4.652;2024-03-08T03:21:00;4.40;99.90
34837;DHT22;21053;50.848;4.652;2024-03-08T03:23:33;4.40;99.90
34837;DHT22;21053;50.848;4.652;2024-03-08T03:26:01;4.40;99.90
34837;DHT22;21053;50.848;4.652;2024-03-08T03:28:31;4.40;99.90
34837;DHT22;21053;50.848;4.652;2024-03-08T03:31:01;4.40;99.90
34837;DHT22;21053;50.848;4.652;2024-03-08T03:33:30;4.40;99.90
34837;DHT22;21053;50.848;4.652;2024-03-08T03:35:58;4.30;99.90
34837;DHT22;21053;50.848;4.652;2024-03-08T03:38:24;4.20;99.90
34837;DHT22;21053;50.848;4.652;2024-03-08T03:40:53;4.30;99.90
34837;DHT22;21053;50.848;4.652;2024-03-08T03:43:23;4.40;99.90
34837;DHT22;21053;50.848;4.652;2024-03-08T03:45:59;4.40;99.90
34837;DHT22;21053;50.848;4.652;2024-03-08T03:48:26;4.30;99.90
34837;DHT22;21053;50.848;4.652;2024-03-08T03:50:59;4.20;99.90
34837;DHT22;21053;50.848;4.652;2024-03-08T03:53:26;4.20;99.90
34837;DHT22;21053;50.848;4.652;2024-03-08T03:55:55;4.10;99.90
34837;DHT22;21053;50.848;4.652;2024-03-08T03:58:23;4.00;99.90
34837;DHT22;21053;50.848;4.652;2024-03-08T04:00:51;4.10;99.90
34837;DHT22;21053;50.848;4.652;2024-03-08T04:03:19;4.20;99.90
34837;DHT22;21053;50.848;4.652;2024-03-08T04:05:46;4.30;99.90
34837;DHT22;21053;50.848;4.652;2024-03-08T04:08:12;4.20;99.90
34837;DHT22;21053;50.848;4.652;2024-03-08T04:10:41;4.10;99.90
34837;DHT22;21053;50.848;4.652;2024-03-08T04:13:09;4.00;99.90
34837;DHT22;21053;50.848;4.652;2024-03-08T04:15:38;4.00;99.90
34837;DHT22;21053;50.848;4.652;2024-03-08T04:18:04;4.00;99.90
34837;DHT22;21053;50.848;4.652;2024-03-08T04:20:33;4.00;99.90
34837;DHT22;21053;50.848;4.652;2024-03-08T04:22:59;3.90;99.90
34837;DHT22;21053;50.848;4.652;2024-03-08T04:25:45;4.00;99.90
34837;DHT22;21053;50.848;4.652;2024-03-08T04:28:14;4.00;99.90
34837;DHT22;21053;50.848;4.652;2024-03-08T04:30:43;4.00;99.90
34837;DHT22;21053;50.848;4.652;2024-03-08T04:33:13;4.00;99.90
34837;DHT22;21053;50.848;4.652;2024-03-08T04:35:46;3.90;99.90
34837;DHT22;21053;50.848;4.652;2024-03-08T04:38:12;3.80;99.90
34837;DHT22;21053;50.848;4.652;2024-03-08T04:40:39;3.80;99.90
34837;DHT22;21053;50.848;4.652;2024-03-08T04:43:08;3.80;99.90
34837;DHT22;21053;50.848;4.652;2024-03-08T04:45:36;3.90;99.90
34837;DHT22;21053;50.848;4.652;2024-03-08T04:48:06;3.90;99.90
34837;DHT22;21053;50.848;4.652;2024-03-08T04:50:39;3.90;99.90
34837;DHT22;21053;50.848;4.652;2024-03-08T04:53:06;3.90;99.90
34837;DHT22;21053;50.848;4.652;2024-03-08T04:55:36;3.90;99.90
34837;DHT22;21053;50.848;4.652;2024-03-08T04:58:06;3.90;99.90
34837;DHT22;21053;50.848;4.652;2024-03-08T05:00:37;3.80;99.90
34837;DHT22;21053;50.848;4.652;2024-03-08T05:03:06;3.80;99.90
34837;DHT22;21053;50.848;4.652;2024-03-08T05:05:38;3.80;99.90
34837;DHT22;21053;50.848;4.652;2024-03-08T05:08:05;3.80;99.90
34837;DHT22;21053;50.848;4.652;2024-03-08T05:10:32;3.70;99.90
34837;DHT22;21053;50.848;4.652;2024-03-08T05:13:01;3.70;99.90
34837;DHT22;21053;50.848;4.652;2024-03-08T05:15:29;3.70;99.90
34837;DHT22;21053;50.848;4.652;2024-03-08T05:17:58;3.70;99.90
34837;DHT22;21053;50.848;4.652;2024-03-08T05:20:27;3.70;99.90
34837;DHT22;21053;50.848;4.652;2024-03-08T05:22:52;3.80;99.90
34837;DHT22;21053;50.848;4.652;2024-03-08T05:25:20;3.70;99.90
34837;DHT22;21053;50.848;4.652;2024-03-08T05:27:46;3.80;99.90
34837;DHT22;21053;50.848;4.652;2024-03-08T05:30:19;3.80;99.90
34837;DHT22;21053;50.848;4.652;2024-03-08T05:32:47;3.80;99.90
34837;DHT22;21053;50.848;4.652;2024-03-08T05:35:14;3.80;99.90
34837;DHT22;21053;50.848;4.652;2024-03-08T05:37:44;3.60;99.90
34837;DHT22;21053;50.848;4.652;2024-03-08T05:40:11;3.60;99.90
34837;DHT22;21053;50.848;4.652;2024-03-08T05:42:40;3.60;99.90
34837;DHT22;21053;50.848;4.652;2024-03-08T05:45:09;3.50;99.90
34837;DHT22;21053;50.848;4.652;2024-03-08T05:47:39;3.50;99.90
34837;DHT22;21053;50.848;4.652;2024-03-08T05:50:06;3.50;99.90
34837;DHT22;21053;50.848;4.652;2024-03-08T05:52:39;3.60;99.90
34837;DHT22;21053;50.848;4.652;2024-03-08T05:55:07;3.60;99.90
34837;DHT22;21053;50.848;4.652;2024-03-08T05:57:36;3.50;99.90
34837;DHT22;21053;50.848;4.652;2024-03-08T06:00:09;3.60;99.90
34837;DHT22;21053;50.848;4.652;2024-03-08T06:02:41;3.60;99.90
34837;DHT22;21053;50.848;4.652;2024-03-08T06:05:11;3.50;99.90
34837;DHT22;21053;50.848;4.652;2024-03-08T06:07:39;3.50;99.90
34837;DHT22;21053;50.848;4.652;2024-03-08T06:10:18;3.60;99.90
34837;DHT22;21053;50.848;4.652;2024-03-08T06:12:46;3.40;99.90
34837;DHT22;21053;50.848;4.652;2024-03-08T06:15:15;3.40;99.90
34837;DHT22;21053;50.848;4.652;2024-03-08T06:17:42;3.50;99.90
34837;DHT22;21053;50.848;4.652;2024-03-08T06:20:09;3.50;99.90
34837;DHT22;21053;50.848;4.652;2024-03-08T06:22:41;3.50;99.90
34837;DHT22;21053;50.848;4.652;2024-03-08T06:25:12;3.50;99.90
34837;DHT22;21053;50.848;4.652;2024-03-08T06:27:41;3.50;99.90
34837;DHT22;21053;50.848;4.652;2024-03-08T06:30:11;3.50;99.90
34837;DHT22;21053;50.848;4.652;2024-03-08T06:32:39;3.50;99.90
34837;DHT22;21053;50.848;4.652;2024-03-08T06:35:06;3.50;99.90
34837;DHT22;21053;50.848;4.652;2024-03-08T06:37:35;3.50;99.90
34837;DHT22;21053;50.848;4.652;2024-03-08T06:40:01;3.50;99.90
34837;DHT22;21053;50.848;4.652;2024-03-08T06:42:31;3.50;99.90
34837;DHT22;21053;50.848;4.652;2024-03-08T06:45:02;3.60;99.90
34837;DHT22;21053;50.848;4.652;2024-03-08T06:47:33;3.50;99.90
34837;DHT22;21053;50.848;4.652;2024-03-08T06:50:05;3.50;99.90
34837;DHT22;21053;50.848;4.652;2024-03-08T06:52:32;3.60;99.90
34837;DHT22;21053;50.848;4.652;2024-03-08T06:55:01;3.60;99.90
34837;DHT22;21053;50.848;4.652;2024-03-08T06:57:31;3.70;99.90
34837;DHT22;21053;50.848;4.652;2024-03-08T07:00:00;3.70;99.90
34837;DHT22;21053;50.848;4.652;2024-03-08T07:02:26;3.70;99.90
34837;DHT22;21053;50.848;4.652;2024-03-08T07:04:55;3.80;99.90
34837;DHT22;21053;50.848;4.652;2024-03-08T07:07:24;3.80;99.90
34837;DHT22;21053;50.848;4.652;2024-03-08T07:09:53;3.90;99.90
34837;DHT22;21053;50.848;4.652;2024-03-08T07:12:20;3.90;99.90
34837;DHT22;21053;50.848;4.652;2024-03-08T07:14:49;4.00;99.90
34837;DHT22;21053;50.848;4.652;2024-03-08T07:17:17;4.00;99.90
34837;DHT22;21053;50.848;4.652;2024-03-08T07:19:43;4.00;99.90
34837;DHT22;21053;50.848;4.652;2024-03-08T07:22:12;4.10;99.90
34837;DHT22;21053;50.848;4.652;2024-03-08T07:24:40;4.10;99.90
34837;DHT22;21053;50.848;4.652;2024-03-08T07:27:25;4.20;99.90
34837;DHT22;21053;50.848;4.652;2024-03-08T07:29:54;4.20;99.90
34837;DHT22;21053;50.848;4.652;2024-03-08T07:32:22;4.30;99.90
34837;DHT22;21053;50.848;4.652;2024-03-08T07:34:49;4.30;99.90
34837;DHT22;21053;50.848;4.652;2024-03-08T07:37:18;4.40;99.90
34837;DHT22;21053;50.848;4.652;2024-03-08T07:39:46;4.50;99.90
34837;DHT22;21053;50.848;4.652;2024-03-08T07:42:15;4.60;99.90
34837;DHT22;21053;50.848;4.652;2024-03-08T07:44:42;4.60;99.90
34837;DHT22;21053;50.848;4.652;2024-03-08T07:47:10;4.80;99.90
34837;DHT22;21053;50.848;4.652;2024-03-08T07:49:39;4.90;99.90
34837;DHT22;21053;50.848;4.652;2024-03-08T07:52:05;5.00;99.90
34837;DHT22;21053;50.848;4.652;2024-03-08T07:54:34;5.20;99.90
34837;DHT22;21053;50.848;4.652;2024-03-08T07:57:00;5.20;99.90
34837;DHT22;21053;50.848;4.652;2024-03-08T07:59:34;5.30;99.90
34837;DHT22;21053;50.848;4.652;2024-03-08T08:02:03;5.30;99.90
34837;DHT22;21053;50.848;4.652;2024-03-08T08:04:31;5.30;99.90
34837;DHT22;21053;50.848;4.652;2024-03-08T08:07:00;5.30;99.90
34837;DHT22;21053;50.848;4.652;2024-03-08T08:09:27;5.30;99.90
34837;DHT22;21053;50.848;4.652;2024-03-08T08:12:03;5.30;99.90
34837;DHT22;21053;50.848;4.652;2024-03-08T08:14:32;5.30;99.90
34837;DHT22;21053;50.848;4.652;2024-03-08T08:17:01;5.40;99.90
34837;DHT22;21053;50.848;4.652;2024-03-08T08:19:29;5.40;99.90
34837;DHT22;21053;50.848;4.652;2024-03-08T08:21:58;5.50;99.90
34837;DHT22;21053;50.848;4.652;2024-03-08T08:24:24;5.60;99.90
34837;DHT22;21053;50.848;4.652;2024-03-08T08:26:52;5.60;99.90
34837;DHT22;21053;50.848;4.652;2024-03-08T08:29:19;5.70;99.90
34837;DHT22;21053;50.848;4.652;2024-03-08T08:31:52;6.00;99.90
34837;DHT22;21053;50.848;4.652;2024-03-08T08:34:20;5.90;99.90
34837;DHT22;21053;50.848;4.652;2024-03-08T08:36:53;5.90;99.90
34837;DHT22;21053;50.848;4.652;2024-03-08T08:39:20;6.00;99.90
34837;DHT22;21053;50.848;4.652;2024-03-08T08:41:51;6.00;99.90
34837;DHT22;21053;50.848;4.652;2024-03-08T08:44:18;6.00;99.90
34837;DHT22;21053;50.848;4.652;2024-03-08T08:46:46;5.90;99.90
34837;DHT22;21053;50.848;4.652;2024-03-08T08:49:15;6.00;99.90
34837;DHT22;21053;50.848;4.652;2024-03-08T08:51:49;6.20;99.90
34837;DHT22;21053;50.848;4.652;2024-03-08T08:54:18;6.40;99.90
34837;DHT22;21053;50.848;4.652;2024-03-08T08:56:49;6.50;99.90
34837;DHT22;21053;50.848;4.652;2024-03-08T08:59:18;6.60;99.90
34837;DHT22;21053;50.848;4.652;2024-03-08T09:01:47;6.60;99.90
34837;DHT22;21053;50.848;4.652;2024-03-08T09:04:16;6.70;99.90
34837;DHT22;21053;50.848;4.652;2024-03-08T09:06:42;6.70;99.90
34837;DHT22;21053;50.848;4.652;2024-03-08T09:09:10;6.90;99.90
34837;DHT22;21053;50.848;4.652;2024-03-08T09:11:41;7.10;99.90
34837;DHT22;21053;50.848;4.652;2024-03-08T09:14:10;7.10;99.90
34837;DHT22;21053;50.848;4.652;2024-03-08T09:16:40;7.10;99.90
34837;DHT22;21053;50.848;4.652;2024-03-08T09:19:09;7.10;99.90
34837;DHT22;21053;50.848;4.652;2024-03-08T09:21:38;7.30;99.90
34837;DHT22;21053;50.848;4.652;2024-03-08T09:24:11;7.20;99.90
34837;DHT22;21053;50.848;4.652;2024-03-08T09:26:39;7.30;99.90
34837;DHT22;21053;50.848;4.652;2024-03-08T09:29:10;7.40;99.90
34837;DHT22;21053;50.848;4.652;2024-03-08T09:31:37;7.60;99.90
34837;DHT22;21053;50.848;4.652;2024-03-08T09:34:06;7.90;99.90
34837;DHT22;21053;50.848;4.652;2024-03-08T09:36:35;8.70;98.20
34837;DHT22;21053;50.848;4.652;2024-03-08T09:39:04;10.50;95.80
34837;DHT22;21053;50.848;4.652;2024-03-08T09:41:36;12.30;92.40
34837;DHT22;21053;50.848;4.652;2024-03-08T09:44:04;13.70;87.80
34837;DHT22;21053;50.848;4.652;2024-03-08T09:46:36;14.60;82.20
34837;DHT22;21053;50.848;4.652;2024-03-08T09:49:02;15.20;78.50
34837;DHT22;21053;50.848;4.652;2024-03-08T09:51:34;15.70;76.00
34837;DHT22;21053;50.848;4.652;2024-03-08T09:54:03;16.50;74.50
34837;DHT22;21053;50.848;4.652;2024-03-08T09:56:34;17.30;72.40
34837;DHT22;21053;50.848;4.652;2024-03-08T09:59:03;18.40;67.10
34837;DHT22;21053;50.848;4.652;2024-03-08T10:01:49;18.60;67.10
34837;DHT22;21053;50.848;4.652;2024-03-08T10:04:16;18.80;65.10
34837;DHT22;21053;50.848;4.652;2024-03-08T10:06:43;18.90;61.30
34837;DHT22;21053;50.848;4.652;2024-03-08T10:09:12;17.90;62.60
34837;DHT22;21053;50.848;4.652;2024-03-08T10:11:40;18.50;63.10
34837;DHT22;21053;50.848;4.652;2024-03-08T10:14:09;18.00;64.90
34837;DHT22;21053;50.848;4.652;2024-03-08T10:16:36;18.40;62.50
34837;DHT22;21053;50.848;4.652;2024-03-08T10:19:04;18.70;63.50
34837;DHT22;21053;50.848;4.652;2024-03-08T10:21:32;18.30;62.00
34837;DHT22;21053;50.848;4.652;2024-03-08T10:23:58;18.40;64.00
34837;DHT22;21053;50.848;4.652;2024-03-08T10:26:26;19.10;61.40
34837;DHT22;21053;50.848;4.652;2024-03-08T10:28:58;18.50;60.80
34837;DHT22;21053;50.848;4.652;2024-03-08T10:31:27;17.00;64.20
34837;DHT22;21053;50.848;4.652;2024-03-08T10:33:53;17.60;64.30
34837;DHT22;21053;50.848;4.652;2024-03-08T10:36:18;18.20;62.60
34837;DHT22;21053;50.848;4.652;2024-03-08T10:38:44;18.80;60.10
34837;DHT22;21053;50.848;4.652;2024-03-08T10:41:16;19.30;60.00
34837;DHT22;21053;50.848;4.652;2024-03-08T10:44:10;19.60;59.20
34837;DHT22;21053;50.848;4.652;2024-03-08T10:52:25;19.70;58.80
34837;DHT22;21053;50.848;4.652;2024-03-08T10:54:54;20.40;58.80
34837;DHT22;21053;50.848;4.652;2024-03-08T10:57:27;20.40;57.80
34837;DHT22;21053;50.848;4.652;2024-03-08T10:59:59;20.60;57.20
34837;DHT22;21053;50.848;4.652;2024-03-08T11:02:33;21.30;56.50
34837;DHT22;21053;50.848;4.652;2024-03-08T11:05:02;20.80;56.80
34837;DHT22;21053;50.848;4.652;2024-03-08T11:07:42;21.10;54.90
34837;DHT22;21053;50.848;4.652;2024-03-08T11:10:19;19.90;58.20
34837;DHT22;21053;50.848;4.652;2024-03-08T11:12:56;20.30;56.60
34837;DHT22;21053;50.848;4.652;2024-03-08T11:15:25;20.40;56.70
34837;DHT22;21053;50.848;4.652;2024-03-08T11:17:58;21.70;57.10
34837;DHT22;21053;50.848;4.652;2024-03-08T11:20:25;20.80;55.80
34837;DHT22;21053;50.848;4.652;2024-03-08T11:22:54;20.40;57.50
34837;DHT22;21053;50.848;4.652;2024-03-08T11:25:38;20.60;56.30
34837;DHT22;21053;50.848;4.652;2024-03-08T11:28:24;21.00;56.60
34837;DHT22;21053;50.848;4.652;2024-03-08T11:33:29;21.00;55.80
34837;DHT22;21053;50.848;4.652;2024-03-08T11:36:11;21.40;56.40
34837;DHT22;21053;50.848;4.652;2024-03-08T11:38:43;21.50;56.20
34837;DHT22;21053;50.848;4.652;2024-03-08T11:43:04;22.30;54.30
34837;DHT22;21053;50.848;4.652;2024-03-08T11:45:38;23.20;54.00
34837;DHT22;21053;50.848;4.652;2024-03-08T11:48:09;22.30;54.90
34837;DHT22;21053;50.848;4.652;2024-03-08T11:50:37;23.50;53.70
34837;DHT22;21053;50.848;4.652;2024-03-08T11:53:04;22.90;52.90
34837;DHT22;21053;50.848;4.652;2024-03-08T11:55:32;22.40;55.20
34837;DHT22;21053;50.848;4.652;2024-03-08T11:58:07;22.40;54.30
34837;DHT22;21053;50.848;4.652;2024-03-08T12:00:38;22.10;53.80
34837;DHT22;21053;50.848;4.652;2024-03-08T12:03:08;22.90;53.70
34837;DHT22;21053;50.848;4.652;2024-03-08T12:05:38;22.90;53.70
34837;DHT22;21053;50.848;4.652;2024-03-08T12:08:05;22.90;53.20
34837;DHT22;21053;50.848;4.652;2024-03-08T12:10:33;23.30;53.50
34837;DHT22;21053;50.848;4.652;2024-03-08T12:13:02;22.40;52.20
34837;DHT22;21053;50.848;4.652;2024-03-08T12:15:37;21.50;53.70
34837;DHT22;21053;50.848;4.652;2024-03-08T12:18:05;21.30;54.40
34837;DHT22;21053;50.848;4.652;2024-03-08T12:20:34;21.30;54.20
34837;DHT22;21053;50.848;4.652;2024-03-08T12:23:02;21.30;54.40
34837;DHT22;21053;50.848;4.652;2024-03-08T12:25:33;20.80;56.50
34837;DHT22;21053;50.848;4.652;2024-03-08T12:28:13;21.10;55.40
34837;DHT22;21053;50.848;4.652;2024-03-08T12:30:50;20.70;54.80
34837;DHT22;21053;50.848;4.652;2024-03-08T12:33:20;20.80;57.10
34837;DHT22;21053;50.848;4.652;2024-03-08T12:35:53;21.60;56.00
34837;DHT22;21053;50.848;4.652;2024-03-08T12:38:21;21.60;56.40
34837;DHT22;21053;50.848;4.652;2024-03-08T12:40:58;20.90;55.50
34837;DHT22;21053;50.848;4.652;2024-03-08T12:43:24;20.30;55.70
34837;DHT22;21053;50.848;4.652;2024-03-08T12:45:53;19.40;58.30
34837;DHT22;21053;50.848;4.652;2024-03-08T12:48:20;19.40;60.70
34837;DHT22;21053;50.848;4.652;2024-03-08T12:50:49;19.80;58.20
34837;DHT22;21053;50.848;4.652;2024-03-08T12:53:18;20.50;55.90
34837;DHT22;21053;50.848;4.652;2024-03-08T12:55:47;20.70;57.60
34837;DHT22;21053;50.848;4.652;2024-03-08T12:58:16;20.70;57.70
34837;DHT22;21053;50.848;4.652;2024-03-08T13:00:45;20.70;56.40
34837;DHT22;21053;50.848;4.652;2024-03-08T13:03:12;21.20;56.80
34837;DHT22;21053;50.848;4.652;2024-03-08T13:05:39;20.70;57.90
34837;DHT22;21053;50.848;4.652;2024-03-08T13:08:13;19.60;58.50
34837;DHT22;21053;50.848;4.652;2024-03-08T13:10:50;18.60;62.20
34837;DHT22;21053;50.848;4.652;2024-03-08T13:13:16;17.40;65.30
34837;DHT22;21053;50.848;4.652;2024-03-08T13:15:45;17.00;66.00
34837;DHT22;21053;50.848;4.652;2024-03-08T13:18:14;16.50;66.70
34837;DHT22;21053;50.848;4.652;2024-03-08T13:20:42;15.80;69.50
34837;DHT22;21053;50.848;4.652;2024-03-08T13:23:14;15.70;72.40
34837;DHT22;21053;50.848;4.652;2024-03-08T13:25:43;15.30;68.90
34837;DHT22;21053;50.848;4.652;2024-03-08T13:28:12;14.80;70.60
34837;DHT22;21053;50.848;4.652;2024-03-08T13:30:39;14.60;71.90
34837;DHT22;21053;50.848;4.652;2024-03-08T13:33:08;14.70;73.50
34837;DHT22;21053;50.848;4.652;2024-03-08T13:35:41;14.60;73.00
34837;DHT22;21053;50.848;4.652;2024-03-08T13:38:08;14.50;72.40
34837;DHT22;21053;50.848;4.652;2024-03-08T13:40:37;14.50;76.50
34837;DHT22;21053;50.848;4.652;2024-03-08T13:43:06;14.40;76.10
34837;DHT22;21053;50.848;4.652;2024-03-08T13:45:35;14.40;76.50
34837;DHT22;21053;50.848;4.652;2024-03-08T13:48:05;14.40;75.70
34837;DHT22;21053;50.848;4.652;2024-03-08T13:50:32;14.40;76.10
34837;DHT22;21053;50.848;4.652;2024-03-08T13:53:01;14.30;76.70
34837;DHT22;21053;50.848;4.652;2024-03-08T13:55:29;14.20;75.70
34837;DHT22;21053;50.848;4.652;2024-03-08T13:57:59;14.40;77.00
34837;DHT22;21053;50.848;4.652;2024-03-08T14:00:31;14.40;74.00
34837;DHT22;21053;50.848;4.652;2024-03-08T14:03:01;14.30;73.80
34837;DHT22;21053;50.848;4.652;2024-03-08T14:05:41;14.20;77.60
34837;DHT22;21053;50.848;4.652;2024-03-08T14:08:11;14.20;76.90
34837;DHT22;21053;50.848;4.652;2024-03-08T14:10:38;14.30;75.80
34837;DHT22;21053;50.848;4.652;2024-03-08T14:13:07;14.30;76.40
34837;DHT22;21053;50.848;4.652;2024-03-08T14:15:35;14.40;76.10
34837;DHT22;21053;50.848;4.652;2024-03-08T14:18:04;14.40;76.40
34837;DHT22;21053;50.848;4.652;2024-03-08T14:20:35;14.40;75.50
34837;DHT22;21053;50.848;4.652;2024-03-08T14:23:00;14.40;76.70
34837;DHT22;21053;50.848;4.652;2024-03-08T14:25:28;14.50;77.40
34837;DHT22;21053;50.848;4.652;2024-03-08T14:27:58;14.60;78.40
34837;DHT22;21053;50.848;4.652;2024-03-08T14:30:30;14.50;75.80
34837;DHT22;21053;50.848;4.652;2024-03-08T14:33:07;14.50;76.40
34837;DHT22;21053;50.848;4.652;2024-03-08T14:35:39;14.40;75.90
34837;DHT22;21053;50.848;4.652;2024-03-08T14:38:08;14.30;76.60
34837;DHT22;21053;50.848;4.652;2024-03-08T14:40:34;14.30;77.70
34837;DHT22;21053;50.848;4.652;2024-03-08T14:43:01;14.20;77.20
34837;DHT22;21053;50.848;4.652;2024-03-08T14:45:28;14.40;76.80
34837;DHT22;21053;50.848;4.652;2024-03-08T14:47:57;14.50;77.00
34837;DHT22;21053;50.848;4.652;2024-03-08T14:50:24;14.40;75.70
34837;DHT22;21053;50.848;4.652;2024-03-08T14:52:52;14.30;75.60
34837;DHT22;21053;50.848;4.652;2024-03-08T14:55:21;14.50;77.20
34837;DHT22;21053;50.848;4.652;2024-03-08T14:57:53;14.40;77.20
34837;DHT22;21053;50.848;4.652;2024-03-08T15:00:22;14.10;76.50
34837;DHT22;21053;50.848;4.652;2024-03-08T15:03:01;14.00;76.70
34837;DHT22;21053;50.848;4.652;2024-03-08T15:05:35;13.90;76.80
34837;DHT22;21053;50.848;4.652;2024-03-08T15:08:09;13.90;78.60
34837;DHT22;21053;50.848;4.652;2024-03-08T15:10:38;13.90;76.50
34837;DHT22;21053;50.848;4.652;2024-03-08T15:13:09;13.90;78.00
34837;DHT22;21053;50.848;4.652;2024-03-08T15:15:42;13.90;78.90
34837;DHT22;21053;50.848;4.652;2024-03-08T15:18:11;14.00;78.90
34837;DHT22;21053;50.848;4.652;2024-03-08T15:20:40;13.80;78.30
34837;DHT22;21053;50.848;4.652;2024-03-08T15:23:08;13.80;77.70
34837;DHT22;21053;50.848;4.652;2024-03-08T15:25:41;13.80;78.90
34837;DHT22;21053;50.848;4.652;2024-03-08T15:28:08;13.70;78.60
34837;DHT22;21053;50.848;4.652;2024-03-08T15:30:41;13.80;79.50
34837;DHT22;21053;50.848;4.652;2024-03-08T15:33:15;13.70;77.70
34837;DHT22;21053;50.848;4.652;2024-03-08T15:35:50;13.60;77.60
34837;DHT22;21053;50.848;4.652;2024-03-08T15:38:24;13.50;79.30
34837;DHT22;21053;50.848;4.652;2024-03-08T15:41:11;13.40;79.80
34837;DHT22;21053;50.848;4.652;2024-03-08T15:43:40;13.20;79.80
34837;DHT22;21053;50.848;4.652;2024-03-08T15:46:11;13.30;79.70
34837;DHT22;21053;50.848;4.652;2024-03-08T15:48:41;13.20;80.80
34837;DHT22;21053;50.848;4.652;2024-03-08T15:51:08;13.30;80.80
34837;DHT22;21053;50.848;4.652;2024-03-08T15:53:39;13.30;80.40
34837;DHT22;21053;50.848;4.652;2024-03-08T15:56:05;13.30;82.30
34837;DHT22;21053;50.848;4.652;2024-03-08T15:58:34;13.30;81.10
34837;DHT22;21053;50.848;4.652;2024-03-08T16:01:04;13.30;80.00
34837;DHT22;21053;50.848;4.652;2024-03-08T16:03:38;13.20;79.60